sensor_id;sensor_type;location;lat;lon;timestamp;temperature;humidity
16827;DHT22;8530;49.540;8.576;2023-03-17T00:02:22;6.70;53.40
16827;DHT22;8530;49.540;8.576;2023-03-17T00:04:50;6.60;53.50
16827;DHT22;8530;49.540;8.576;2023-03-17T00:07:17;6.60;53.70
16827;DHT22;8530;49.540;8.576;2023-03-17T00:09:44;6.60;53.80
16827;DHT22;8530;49.540;8.576;2023-03-17T00:12:11;6.50;53.90
16827;DHT22;8530;49.540;8.576;2023-03-17T00:14:38;6.50;54.00
16827;DHT22;8530;49.540;8.576;2023-03-17T00:17:08;6.50;54.20
16827;DHT22;8530;49.540;8.576;2023-03-17T00:19:35;6.50;54.30
16827;DHT22;8530;49.540;8.576;2023-03-17T00:22:05;6.50;54.40
16827;DHT22;8530;49.540;8.576;2023-03-17T00:24:32;6.50;54.60
16827;DHT22;8530;49.540;8.576;2023-03-17T00:26:59;6.50;54.80
16827;DHT22;8530;49.540;8.576;2023-03-17T00:29:26;6.50;54.90
16827;DHT22;8530;49.540;8.576;2023-03-17T00:31:54;6.50;55.00
16827;DHT22;8530;49.540;8.576;2023-03-17T00:34:22;6.50;55.10
16827;DHT22;8530;49.540;8.576;2023-03-17T00:36:49;6.40;55.70
16827;DHT22;8530;49.540;8.576;2023-03-17T00:39:18;6.40;55.30
16827;DHT22;8530;49.540;8.576;2023-03-17T00:41:45;6.40;55.40
16827;DHT22;8530;49.540;8.576;2023-03-17T00:44:11;6.30;55.50
16827;DHT22;8530;49.540;8.576;2023-03-17T00:46:39;6.30;55.70
16827;DHT22;8530;49.540;8.576;2023-03-17T00:49:12;6.30;55.80
16827;DHT22;8530;49.540;8.576;2023-03-17T00:51:40;6.20;55.90
16827;DHT22;8530;49.540;8.576;2023-03-17T00:54:08;6.20;56.10
16827;DHT22;8530;49.540;8.576;2023-03-17T00:56:37;6.20;56.30
16827;DHT22;8530;49.540;8.576;2023-03-17T00:59:16;6.20;56.50
16827;DHT22;8530;49.540;8.576;2023-03-17T01:01:44;6.20;56.70
16827;DHT22;8530;49.540;8.576;2023-03-17T01:04:12;6.20;56.70
16827;DHT22;8530;49.540;8.576;2023-03-17T01:06:40;6.20;56.90
16827;DHT22;8530;49.540;8.576;2023-03-17T01:09:07;6.20;57.10
16827;DHT22;8530;49.540;8.576;2023-03-17T01:11:36;6.10;57.30
16827;DHT22;8530;49.540;8.576;2023-03-17T01:14:03;6.10;57.50
16827;DHT22;8530;49.540;8.576;2023-03-17T01:16:30;6.10;57.60
16827;DHT22;8530;49.540;8.576;2023-03-17T01:18:57;6.10;57.80
16827;DHT22;8530;49.540;8.576;2023-03-17T01:21:23;6.10;58.10
16827;DHT22;8530;49.540;8.576;2023-03-17T01:23:50;6.10;58.30
16827;DHT22;8530;49.540;8.576;2023-03-17T01:26:18;6.10;58.40
16827;DHT22;8530;49.540;8.576;2023-03-17T01:28:46;6.10;58.60
16827;DHT22;8530;49.540;8.576;2023-03-17T01:31:13;6.10;58.90
16827;DHT22;8530;49.540;8.576;2023-03-17T01:33:39;6.10;59.00
16827;DHT22;8530;49.540;8.576;2023-03-17T01:36:07;6.10;59.20
16827;DHT22;8530;49.540;8.576;2023-03-17T01:38:34;6.10;59.40
16827;DHT22;8530;49.540;8.576;2023-03-17T01:41:02;6.10;59.60
16827;DHT22;8530;49.540;8.576;2023-03-17T01:43:29;6.10;59.80
16827;DHT22;8530;49.540;8.576;2023-03-17T01:46:23;6.10;60.00
16827;DHT22;8530;49.540;8.576;2023-03-17T01:49:02;6.10;60.40
16827;DHT22;8530;49.540;8.576;2023-03-17T01:51:33;6.10;60.50
16827;DHT22;8530;49.540;8.576;2023-03-17T01:54:05;6.10;60.70
16827;DHT22;8530;49.540;8.576;2023-03-17T01:56:33;6.10;61.00
16827;DHT22;8530;49.540;8.576;2023-03-17T01:59:03;6.10;61.20
16827;DHT22;8530;49.540;8.576;2023-03-17T02:01:35;6.10;61.50
16827;DHT22;8530;49.540;8.576;2023-03-17T02:04:03;6.10;61.70
16827;DHT22;8530;49.540;8.576;2023-03-17T02:06:31;6.10;62.00
16827;DHT22;8530;49.540;8.576;2023-03-17T02:08:58;6.10;62.30
16827;DHT22;8530;49.540;8.576;2023-03-17T02:11:26;6.10;62.60
16827;DHT22;8530;49.540;8.576;2023-03-17T02:13:53;6.00;62.70
16827;DHT22;8530;49.540;8.576;2023-03-17T02:16:20;6.00;63.10
16827;DHT22;8530;49.540;8.576;2023-03-17T02:18:48;6.00;63.40
16827;DHT22;8530;49.540;8.576;2023-03-17T02:21:38;5.90;63.70
16827;DHT22;8530;49.540;8.576;2023-03-17T02:24:09;5.90;64.20
16827;DHT22;8530;49.540;8.576;2023-03-17T02:26:37;5.90;64.40
16827;DHT22;8530;49.540;8.576;2023-03-17T02:29:04;5.90;64.70
16827;DHT22;8530;49.540;8.576;2023-03-17T02:31:31;5.90;64.90
16827;DHT22;8530;49.540;8.576;2023-03-17T02:33:59;5.90;65.30
16827;DHT22;8530;49.540;8.576;2023-03-17T02:36:26;5.80;65.50
16827;DHT22;8530;49.540;8.576;2023-03-17T02:38:54;5.80;65.90
16827;DHT22;8530;49.540;8.576;2023-03-17T02:41:22;5.80;66.30
16827;DHT22;8530;49.540;8.576;2023-03-17T02:43:48;5.70;66.40
16827;DHT22;8530;49.540;8.576;2023-03-17T02:46:16;5.70;66.80
16827;DHT22;8530;49.540;8.576;2023-03-17T02:48:43;5.60;67.10
16827;DHT22;8530;49.540;8.576;2023-03-17T02:51:10;5.50;67.40
16827;DHT22;8530;49.540;8.576;2023-03-17T02:53:37;5.50;67.80
16827;DHT22;8530;49.540;8.576;2023-03-17T02:56:06;5.40;68.20
16827;DHT22;8530;49.540;8.576;2023-03-17T02:58:33;5.40;68.60
16827;DHT22;8530;49.540;8.576;2023-03-17T03:01:00;5.30;68.90
16827;DHT22;8530;49.540;8.576;2023-03-17T03:03:27;5.30;69.40
16827;DHT22;8530;49.540;8.576;2023-03-17T03:05:54;5.20;69.80
16827;DHT22;8530;49.540;8.576;2023-03-17T03:08:22;5.10;70.10
16827;DHT22;8530;49.540;8.576;2023-03-17T03:10:48;5.10;70.60
16827;DHT22;8530;49.540;8.576;2023-03-17T03:13:16;5.00;70.90
16827;DHT22;8530;49.540;8.576;2023-03-17T03:15:43;5.00;71.40
16827;DHT22;8530;49.540;8.576;2023-03-17T03:18:10;4.90;71.70
16827;DHT22;8530;49.540;8.576;2023-03-17T03:20:37;4.90;72.20
16827;DHT22;8530;49.540;8.576;2023-03-17T03:23:06;4.80;72.60
16827;DHT22;8530;49.540;8.576;2023-03-17T03:25:34;4.70;73.00
16827;DHT22;8530;49.540;8.576;2023-03-17T03:28:02;4.70;73.40
16827;DHT22;8530;49.540;8.576;2023-03-17T03:30:30;4.60;73.80
16827;DHT22;8530;49.540;8.576;2023-03-17T03:32:57;4.60;74.40
16827;DHT22;8530;49.540;8.576;2023-03-17T03:35:24;4.50;74.80
16827;DHT22;8530;49.540;8.576;2023-03-17T03:37:51;4.50;75.90
16827;DHT22;8530;49.540;8.576;2023-03-17T03:40:17;4.40;75.70
16827;DHT22;8530;49.540;8.576;2023-03-17T03:42:44;4.30;76.10
16827;DHT22;8530;49.540;8.576;2023-03-17T03:45:11;4.30;76.60
16827;DHT22;8530;49.540;8.576;2023-03-17T03:47:39;4.20;77.00
16827;DHT22;8530;49.540;8.576;2023-03-17T03:50:07;4.20;77.70
16827;DHT22;8530;49.540;8.576;2023-03-17T03:52:35;4.10;78.10
16827;DHT22;8530;49.540;8.576;2023-03-17T03:55:01;4.10;78.70
16827;DHT22;8530;49.540;8.576;2023-03-17T03:57:28;4.10;79.20
16827;DHT22;8530;49.540;8.576;2023-03-17T03:59:55;4.00;79.70
16827;DHT22;8530;49.540;8.576;2023-03-17T04:02:21;4.00;80.20
16827;DHT22;8530;49.540;8.576;2023-03-17T04:04:49;4.00;80.80
16827;DHT22;8530;49.540;8.576;2023-03-17T04:07:16;3.90;81.30
16827;DHT22;8530;49.540;8.576;2023-03-17T04:09:43;3.90;81.70
16827;DHT22;8530;49.540;8.576;2023-03-17T04:12:10;3.80;82.20
16827;DHT22;8530;49.540;8.576;2023-03-17T04:14:37;3.80;82.80
16827;DHT22;8530;49.540;8.576;2023-03-17T04:17:03;3.80;83.40
16827;DHT22;8530;49.540;8.576;2023-03-17T04:19:30;3.70;83.90
16827;DHT22;8530;49.540;8.576;2023-03-17T04:21:58;3.70;84.50
16827;DHT22;8530;49.540;8.576;2023-03-17T04:24:26;3.70;85.20
16827;DHT22;8530;49.540;8.576;2023-03-17T04:26:53;3.60;85.60
16827;DHT22;8530;49.540;8.576;2023-03-17T04:29:20;3.60;86.20
16827;DHT22;8530;49.540;8.576;2023-03-17T04:31:47;3.50;86.70
16827;DHT22;8530;49.540;8.576;2023-03-17T04:34:16;3.50;87.30
16827;DHT22;8530;49.540;8.576;2023-03-17T04:36:43;3.50;88.40
16827;DHT22;8530;49.540;8.576;2023-03-17T04:39:12;3.50;88.40
16827;DHT22;8530;49.540;8.576;2023-03-17T04:41:39;3.40;88.80
16827;DHT22;8530;49.540;8.576;2023-03-17T04:44:06;3.40;89.40
16827;DHT22;8530;49.540;8.576;2023-03-17T04:46:33;3.40;90.00
16827;DHT22;8530;49.540;8.576;2023-03-17T04:49:00;3.30;90.20
16827;DHT22;8530;49.540;8.576;2023-03-17T04:51:27;3.30;90.40
16827;DHT22;8530;49.540;8.576;2023-03-17T04:53:53;3.30;90.60
16827;DHT22;8530;49.540;8.576;2023-03-17T04:56:21;3.30;90.80
16827;DHT22;8530;49.540;8.576;2023-03-17T04:58:48;3.30;91.00
16827;DHT22;8530;49.540;8.576;2023-03-17T05:01:15;3.20;91.20
16827;DHT22;8530;49.540;8.576;2023-03-17T05:03:42;3.20;91.40
16827;DHT22;8530;49.540;8.576;2023-03-17T05:06:09;3.20;91.60
16827;DHT22;8530;49.540;8.576;2023-03-17T05:08:36;3.20;91.80
16827;DHT22;8530;49.540;8.576;2023-03-17T05:11:03;3.10;92.00
16827;DHT22;8530;49.540;8.576;2023-03-17T05:13:31;3.10;92.20
16827;DHT22;8530;49.540;8.576;2023-03-17T05:15:58;3.10;92.40
16827;DHT22;8530;49.540;8.576;2023-03-17T05:18:26;3.10;92.50
16827;DHT22;8530;49.540;8.576;2023-03-17T05:20:53;3.00;92.70
16827;DHT22;8530;49.540;8.576;2023-03-17T05:23:21;3.00;92.80
16827;DHT22;8530;49.540;8.576;2023-03-17T05:25:48;2.90;92.90
16827;DHT22;8530;49.540;8.576;2023-03-17T05:28:15;2.90;93.10
16827;DHT22;8530;49.540;8.576;2023-03-17T05:30:44;2.90;93.20
16827;DHT22;8530;49.540;8.576;2023-03-17T05:33:12;2.80;93.40
16827;DHT22;8530;49.540;8.576;2023-03-17T05:35:39;2.80;93.50
16827;DHT22;8530;49.540;8.576;2023-03-17T05:38:06;2.80;93.60
16827;DHT22;8530;49.540;8.576;2023-03-17T05:40:34;2.80;93.80
16827;DHT22;8530;49.540;8.576;2023-03-17T05:43:01;2.80;94.00
16827;DHT22;8530;49.540;8.576;2023-03-17T05:45:28;2.80;94.10
16827;DHT22;8530;49.540;8.576;2023-03-17T05:47:57;2.80;94.20
16827;DHT22;8530;49.540;8.576;2023-03-17T05:50:24;2.80;94.40
16827;DHT22;8530;49.540;8.576;2023-03-17T05:52:51;2.80;94.50
16827;DHT22;8530;49.540;8.576;2023-03-17T05:55:19;2.80;94.60
16827;DHT22;8530;49.540;8.576;2023-03-17T05:57:46;2.80;94.70
16827;DHT22;8530;49.540;8.576;2023-03-17T06:00:14;2.90;94.90
16827;DHT22;8530;49.540;8.576;2023-03-17T06:02:41;2.90;95.00
16827;DHT22;8530;49.540;8.576;2023-03-17T06:05:09;2.90;95.10
16827;DHT22;8530;49.540;8.576;2023-03-17T06:07:36;3.00;95.40
16827;DHT22;8530;49.540;8.576;2023-03-17T06:10:04;3.00;95.40
16827;DHT22;8530;49.540;8.576;2023-03-17T06:12:31;3.10;95.50
16827;DHT22;8530;49.540;8.576;2023-03-17T06:14:58;3.10;95.60
16827;DHT22;8530;49.540;8.576;2023-03-17T06:17:24;3.20;95.80
16827;DHT22;8530;49.540;8.576;2023-03-17T06:19:51;3.20;96.00
16827;DHT22;8530;49.540;8.576;2023-03-17T06:22:19;3.30;96.10
16827;DHT22;8530;49.540;8.576;2023-03-17T06:24:46;3.40;96.30
16827;DHT22;8530;49.540;8.576;2023-03-17T06:27:13;3.50;96.40
16827;DHT22;8530;49.540;8.576;2023-03-17T06:29:40;3.60;96.50
16827;DHT22;8530;49.540;8.576;2023-03-17T06:32:07;3.80;96.60
16827;DHT22;8530;49.540;8.576;2023-03-17T06:34:34;4.00;96.70
16827;DHT22;8530;49.540;8.576;2023-03-17T06:37:00;4.10;96.70
16827;DHT22;8530;49.540;8.576;2023-03-17T06:39:28;4.20;96.80
16827;DHT22;8530;49.540;8.576;2023-03-17T06:41:55;4.30;96.80
16827;DHT22;8530;49.540;8.576;2023-03-17T06:44:22;4.50;96.90
16827;DHT22;8530;49.540;8.576;2023-03-17T06:46:49;4.50;96.80
16827;DHT22;8530;49.540;8.576;2023-03-17T06:49:17;4.60;96.90
16827;DHT22;8530;49.540;8.576;2023-03-17T06:51:43;4.80;96.90
16827;DHT22;8530;49.540;8.576;2023-03-17T06:54:10;4.90;96.90
16827;DHT22;8530;49.540;8.576;2023-03-17T06:56:38;5.00;97.00
16827;DHT22;8530;49.540;8.576;2023-03-17T06:59:06;5.30;97.50
16827;DHT22;8530;49.540;8.576;2023-03-17T07:01:32;6.00;98.20
16827;DHT22;8530;49.540;8.576;2023-03-17T07:03:59;6.60;98.30
16827;DHT22;8530;49.540;8.576;2023-03-17T07:06:26;7.00;98.00
16827;DHT22;8530;49.540;8.576;2023-03-17T07:08:52;7.30;97.70
16827;DHT22;8530;49.540;8.576;2023-03-17T07:11:19;7.60;97.70
16827;DHT22;8530;49.540;8.576;2023-03-17T07:13:49;8.20;98.30
16827;DHT22;8530;49.540;8.576;2023-03-17T07:16:16;9.80;99.90
16827;DHT22;8530;49.540;8.576;2023-03-17T07:18:45;12.00;99.90
16827;DHT22;8530;49.540;8.576;2023-03-17T07:21:12;14.10;99.90
16827;DHT22;8530;49.540;8.576;2023-03-17T07:23:39;15.80;99.90
16827;DHT22;8530;49.540;8.576;2023-03-17T07:26:06;17.30;98.60
16827;DHT22;8530;49.540;8.576;2023-03-17T07:28:33;18.50;97.00
16827;DHT22;8530;49.540;8.576;2023-03-17T07:31:01;19.70;94.30
16827;DHT22;8530;49.540;8.576;2023-03-17T07:33:30;20.40;89.80
16827;DHT22;8530;49.540;8.576;2023-03-17T07:35:58;20.50;81.70
16827;DHT22;8530;49.540;8.576;2023-03-17T07:38:26;20.60;76.00
16827;DHT22;8530;49.540;8.576;2023-03-17T07:40:52;20.80;70.90
16827;DHT22;8530;49.540;8.576;2023-03-17T07:43:20;20.90;66.50
16827;DHT22;8530;49.540;8.576;2023-03-17T07:45:47;20.90;61.70
16827;DHT22;8530;49.540;8.576;2023-03-17T07:48:15;20.90;58.60
16827;DHT22;8530;49.540;8.576;2023-03-17T07:50:42;20.70;56.00
16827;DHT22;8530;49.540;8.576;2023-03-17T07:53:09;20.50;54.30
16827;DHT22;8530;49.540;8.576;2023-03-17T07:55:36;20.40;52.80
16827;DHT22;8530;49.540;8.576;2023-03-17T07:58:03;20.40;52.00
16827;DHT22;8530;49.540;8.576;2023-03-17T08:00:30;20.60;51.60
16827;DHT22;8530;49.540;8.576;2023-03-17T08:02:58;21.00;51.00
16827;DHT22;8530;49.540;8.576;2023-03-17T08:05:26;21.20;49.90
16827;DHT22;8530;49.540;8.576;2023-03-17T08:07:53;21.20;48.40
16827;DHT22;8530;49.540;8.576;2023-03-17T08:10:20;21.30;47.60
16827;DHT22;8530;49.540;8.576;2023-03-17T08:12:47;21.40;46.80
16827;DHT22;8530;49.540;8.576;2023-03-17T08:15:16;21.80;46.60
16827;DHT22;8530;49.540;8.576;2023-03-17T08:17:43;22.80;47.60
16827;DHT22;8530;49.540;8.576;2023-03-17T08:20:11;24.10;47.80
16827;DHT22;8530;49.540;8.576;2023-03-17T08:22:40;25.40;46.50
16827;DHT22;8530;49.540;8.576;2023-03-17T08:25:07;26.80;44.70
16827;DHT22;8530;49.540;8.576;2023-03-17T08:27:35;28.40;43.40
16827;DHT22;8530;49.540;8.576;2023-03-17T08:30:03;29.90;40.80
16827;DHT22;8530;49.540;8.576;2023-03-17T08:32:30;31.10;37.80
16827;DHT22;8530;49.540;8.576;2023-03-17T08:34:57;31.80;35.30
16827;DHT22;8530;49.540;8.576;2023-03-17T08:37:24;32.20;33.50
16827;DHT22;8530;49.540;8.576;2023-03-17T08:39:52;32.50;31.10
16827;DHT22;8530;49.540;8.576;2023-03-17T08:42:19;32.90;29.30
16827;DHT22;8530;49.540;8.576;2023-03-17T08:44:46;33.30;27.90
16827;DHT22;8530;49.540;8.576;2023-03-17T08:47:13;33.70;26.10
16827;DHT22;8530;49.540;8.576;2023-03-17T08:49:40;33.80;24.30
16827;DHT22;8530;49.540;8.576;2023-03-17T08:52:08;33.70;23.00
16827;DHT22;8530;49.540;8.576;2023-03-17T08:54:35;33.40;22.00
16827;DHT22;8530;49.540;8.576;2023-03-17T08:57:03;32.40;21.00
16827;DHT22;8530;49.540;8.576;2023-03-17T08:59:30;30.70;19.80
16827;DHT22;8530;49.540;8.576;2023-03-17T09:01:57;28.80;19.30
16827;DHT22;8530;49.540;8.576;2023-03-17T09:04:24;26.80;19.20
16827;DHT22;8530;49.540;8.576;2023-03-17T09:06:51;25.10;19.60
16827;DHT22;8530;49.540;8.576;2023-03-17T09:09:19;23.80;19.80
16827;DHT22;8530;49.540;8.576;2023-03-17T09:11:46;22.50;19.90
16827;DHT22;8530;49.540;8.576;2023-03-17T09:14:14;21.30;20.30
16827;DHT22;8530;49.540;8.576;2023-03-17T09:16:40;20.50;20.80
16827;DHT22;8530;49.540;8.576;2023-03-17T09:19:07;19.80;21.20
16827;DHT22;8530;49.540;8.576;2023-03-17T09:21:34;19.50;21.80
16827;DHT22;8530;49.540;8.576;2023-03-17T09:24:01;19.00;22.00
16827;DHT22;8530;49.540;8.576;2023-03-17T09:26:29;18.50;22.40
16827;DHT22;8530;49.540;8.576;2023-03-17T09:28:56;18.10;23.00
16827;DHT22;8530;49.540;8.576;2023-03-17T09:31:24;17.80;23.50
16827;DHT22;8530;49.540;8.576;2023-03-17T09:33:51;17.90;24.30
16827;DHT22;8530;49.540;8.576;2023-03-17T09:36:18;18.00;24.80
16827;DHT22;8530;49.540;8.576;2023-03-17T09:38:45;18.10;25.30
16827;DHT22;8530;49.540;8.576;2023-03-17T09:41:28;18.10;25.70
16827;DHT22;8530;49.540;8.576;2023-03-17T09:44:04;18.10;26.00
16827;DHT22;8530;49.540;8.576;2023-03-17T09:46:44;18.20;26.40
16827;DHT22;8530;49.540;8.576;2023-03-17T09:49:15;18.30;26.60
16827;DHT22;8530;49.540;8.576;2023-03-17T09:51:44;18.30;26.80
16827;DHT22;8530;49.540;8.576;2023-03-17T09:54:15;18.20;26.80
16827;DHT22;8530;49.540;8.576;2023-03-17T09:56:47;18.10;27.00
16827;DHT22;8530;49.540;8.576;2023-03-17T09:59:27;18.10;27.30
16827;DHT22;8530;49.540;8.576;2023-03-17T10:01:56;18.20;27.60
16827;DHT22;8530;49.540;8.576;2023-03-17T10:04:23;18.00;27.60
16827;DHT22;8530;49.540;8.576;2023-03-17T10:06:50;18.00;27.80
16827;DHT22;8530;49.540;8.576;2023-03-17T10:09:24;17.90;28.10
16827;DHT22;8530;49.540;8.576;2023-03-17T10:12:00;18.00;28.40
16827;DHT22;8530;49.540;8.576;2023-03-17T10:14:37;18.00;28.50
16827;DHT22;8530;49.540;8.576;2023-03-17T10:17:13;18.20;28.80
16827;DHT22;8530;49.540;8.576;2023-03-17T10:19:44;18.40;29.00
16827;DHT22;8530;49.540;8.576;2023-03-17T10:22:15;18.50;29.10
16827;DHT22;8530;49.540;8.576;2023-03-17T10:24:46;18.60;29.10
16827;DHT22;8530;49.540;8.576;2023-03-17T10:27:14;18.60;29.20
16827;DHT22;8530;49.540;8.576;2023-03-17T10:29:43;18.80;29.50
16827;DHT22;8530;49.540;8.576;2023-03-17T10:32:12;18.90;30.00
16827;DHT22;8530;49.540;8.576;2023-03-17T10:34:40;19.20;29.70
16827;DHT22;8530;49.540;8.576;2023-03-17T10:37:12;19.40;29.70
16827;DHT22;8530;49.540;8.576;2023-03-17T10:39:44;19.50;29.60
16827;DHT22;8530;49.540;8.576;2023-03-17T10:42:20;19.60;29.50
16827;DHT22;8530;49.540;8.576;2023-03-17T10:44:49;19.80;29.50
16827;DHT22;8530;49.540;8.576;2023-03-17T10:47:32;19.90;29.40
16827;DHT22;8530;49.540;8.576;2023-03-17T10:50:15;19.90;29.20
16827;DHT22;8530;49.540;8.576;2023-03-17T10:52:44;19.70;28.90
16827;DHT22;8530;49.540;8.576;2023-03-17T10:55:16;19.50;28.90
16827;DHT22;8530;49.540;8.576;2023-03-17T10:57:50;19.40;28.90
16827;DHT22;8530;49.540;8.576;2023-03-17T11:00:19;19.40;28.90
16827;DHT22;8530;49.540;8.576;2023-03-17T11:02:51;19.60;28.90
16827;DHT22;8530;49.540;8.576;2023-03-17T11:05:22;19.60;28.70
16827;DHT22;8530;49.540;8.576;2023-03-17T11:07:49;19.70;28.70
16827;DHT22;8530;49.540;8.576;2023-03-17T11:10:24;19.80;28.60
16827;DHT22;8530;49.540;8.576;2023-03-17T11:12:56;19.90;28.60
16827;DHT22;8530;49.540;8.576;2023-03-17T11:15:28;20.10;28.60
16827;DHT22;8530;49.540;8.576;2023-03-17T11:18:00;20.40;28.60
16827;DHT22;8530;49.540;8.576;2023-03-17T11:20:52;20.40;28.20
16827;DHT22;8530;49.540;8.576;2023-03-17T11:23:43;20.40;28.10
16827;DHT22;8530;49.540;8.576;2023-03-17T11:29:23;20.70;28.10
16827;DHT22;8530;49.540;8.576;2023-03-17T11:31:58;20.70;27.80
16827;DHT22;8530;49.540;8.576;2023-03-17T11:34:46;20.70;27.80
16827;DHT22;8530;49.540;8.576;2023-03-17T11:37:25;20.60;27.70
16827;DHT22;8530;49.540;8.576;2023-03-17T11:40:02;20.70;27.80
16827;DHT22;8530;49.540;8.576;2023-03-17T11:42:36;20.70;27.80
16827;DHT22;8530;49.540;8.576;2023-03-17T11:45:16;20.70;27.80
16827;DHT22;8530;49.540;8.576;2023-03-17T11:47:52;20.70;27.80
16827;DHT22;8530;49.540;8.576;2023-03-17T11:50:28;20.60;27.80
16827;DHT22;8530;49.540;8.576;2023-03-17T11:53:14;20.50;27.80
16827;DHT22;8530;49.540;8.576;2023-03-17T11:55:47;20.30;27.70
16827;DHT22;8530;49.540;8.576;2023-03-17T11:58:22;20.40;27.90
16827;DHT22;8530;49.540;8.576;2023-03-17T12:00:54;20.60;28.00
16827;DHT22;8530;49.540;8.576;2023-03-17T12:03:29;20.60;27.80
16827;DHT22;8530;49.540;8.576;2023-03-17T12:06:01;20.60;28.20
16827;DHT22;8530;49.540;8.576;2023-03-17T12:08:35;20.80;27.90
16827;DHT22;8530;49.540;8.576;2023-03-17T12:11:06;21.10;27.90
16827;DHT22;8530;49.540;8.576;2023-03-17T12:13:37;21.30;27.90
16827;DHT22;8530;49.540;8.576;2023-03-17T12:16:08;21.40;27.70
16827;DHT22;8530;49.540;8.576;2023-03-17T12:18:40;21.50;27.60
16827;DHT22;8530;49.540;8.576;2023-03-17T12:21:16;21.50;27.50
16827;DHT22;8530;49.540;8.576;2023-03-17T12:23:47;21.60;27.60
16827;DHT22;8530;49.540;8.576;2023-03-17T12:26:16;21.50;27.40
16827;DHT22;8530;49.540;8.576;2023-03-17T12:28:48;21.40;27.40
16827;DHT22;8530;49.540;8.576;2023-03-17T12:31:19;21.40;27.40
16827;DHT22;8530;49.540;8.576;2023-03-17T12:33:51;21.30;27.30
16827;DHT22;8530;49.540;8.576;2023-03-17T12:36:23;21.30;27.30
16827;DHT22;8530;49.540;8.576;2023-03-17T12:38:52;21.20;27.40
16827;DHT22;8530;49.540;8.576;2023-03-17T12:41:40;21.20;27.40
16827;DHT22;8530;49.540;8.576;2023-03-17T12:44:14;21.10;27.30
16827;DHT22;8530;49.540;8.576;2023-03-17T12:47:08;20.90;27.20
16827;DHT22;8530;49.540;8.576;2023-03-17T12:50:02;20.90;27.60
16827;DHT22;8530;49.540;8.576;2023-03-17T12:52:45;20.90;27.70
16827;DHT22;8530;49.540;8.576;2023-03-17T12:55:21;21.10;27.90
16827;DHT22;8530;49.540;8.576;2023-03-17T12:57:59;21.20;28.00
16827;DHT22;8530;49.540;8.576;2023-03-17T13:00:28;21.30;28.00
16827;DHT22;8530;49.540;8.576;2023-03-17T13:03:10;21.30;28.50
16827;DHT22;8530;49.540;8.576;2023-03-17T13:05:44;21.40;28.20
16827;DHT22;8530;49.540;8.576;2023-03-17T13:08:22;21.50;28.30
16827;DHT22;8530;49.540;8.576;2023-03-17T13:10:49;21.60;28.30
16827;DHT22;8530;49.540;8.576;2023-03-17T13:13:34;21.60;28.30
16827;DHT22;8530;49.540;8.576;2023-03-17T13:16:03;21.60;28.20
16827;DHT22;8530;49.540;8.576;2023-03-17T13:18:47;21.50;28.10
16827;DHT22;8530;49.540;8.576;2023-03-17T13:21:16;21.30;28.50
16827;DHT22;8530;49.540;8.576;2023-03-17T13:23:46;21.30;28.20
16827;DHT22;8530;49.540;8.576;2023-03-17T13:26:19;21.30;28.30
16827;DHT22;8530;49.540;8.576;2023-03-17T13:28:48;21.20;28.20
16827;DHT22;8530;49.540;8.576;2023-03-17T13:31:32;20.90;28.10
16827;DHT22;8530;49.540;8.576;2023-03-17T13:34:10;20.70;28.40
16827;DHT22;8530;49.540;8.576;2023-03-17T13:36:43;20.60;28.60
16827;DHT22;8530;49.540;8.576;2023-03-17T13:39:30;20.60;28.80
16827;DHT22;8530;49.540;8.576;2023-03-17T13:42:08;20.70;29.00
16827;DHT22;8530;49.540;8.576;2023-03-17T13:47:41;20.50;29.10
16827;DHT22;8530;49.540;8.576;2023-03-17T13:50:13;20.50;29.20
16827;DHT22;8530;49.540;8.576;2023-03-17T13:52:45;20.60;29.40
16827;DHT22;8530;49.540;8.576;2023-03-17T13:55:33;20.70;29.60
16827;DHT22;8530;49.540;8.576;2023-03-17T13:58:19;20.70;29.60
16827;DHT22;8530;49.540;8.576;2023-03-17T14:00:48;20.70;29.60
16827;DHT22;8530;49.540;8.576;2023-03-17T14:03:27;20.70;29.60
16827;DHT22;8530;49.540;8.576;2023-03-17T14:05:54;20.70;29.70
16827;DHT22;8530;49.540;8.576;2023-03-17T14:08:27;20.60;29.80
16827;DHT22;8530;49.540;8.576;2023-03-17T14:10:58;20.50;29.90
16827;DHT22;8530;49.540;8.576;2023-03-17T14:13:28;20.40;30.00
16827;DHT22;8530;49.540;8.576;2023-03-17T14:15:58;20.30;30.00
16827;DHT22;8530;49.540;8.576;2023-03-17T14:18:30;20.20;30.20
16827;DHT22;8530;49.540;8.576;2023-03-17T14:21:00;20.10;30.20
16827;DHT22;8530;49.540;8.576;2023-03-17T14:23:29;19.90;30.20
16827;DHT22;8530;49.540;8.576;2023-03-17T14:25:58;19.80;30.50
16827;DHT22;8530;49.540;8.576;2023-03-17T14:28:26;19.80;30.70
16827;DHT22;8530;49.540;8.576;2023-03-17T14:30:55;19.80;30.80
16827;DHT22;8530;49.540;8.576;2023-03-17T14:33:25;19.70;30.90
16827;DHT22;8530;49.540;8.576;2023-03-17T14:35:56;19.70;31.10
16827;DHT22;8530;49.540;8.576;2023-03-17T14:38:25;19.70;31.20
16827;DHT22;8530;49.540;8.576;2023-03-17T14:41:01;19.70;31.30
16827;DHT22;8530;49.540;8.576;2023-03-17T14:43:28;19.70;31.50
16827;DHT22;8530;49.540;8.576;2023-03-17T14:45:58;19.60;31.40
16827;DHT22;8530;49.540;8.576;2023-03-17T14:48:29;19.50;31.50
16827;DHT22;8530;49.540;8.576;2023-03-17T14:50:59;19.40;31.50
16827;DHT22;8530;49.540;8.576;2023-03-17T14:53:30;19.30;31.70
16827;DHT22;8530;49.540;8.576;2023-03-17T14:55:59;19.20;31.80
16827;DHT22;8530;49.540;8.576;2023-03-17T14:58:29;19.10;31.90
16827;DHT22;8530;49.540;8.576;2023-03-17T15:01:01;18.90;32.00
16827;DHT22;8530;49.540;8.576;2023-03-17T15:03:30;18.80;32.20
16827;DHT22;8530;49.540;8.576;2023-03-17T15:06:20;18.70;32.40
16827;DHT22;8530;49.540;8.576;2023-03-17T15:08:47;18.50;32.50
16827;DHT22;8530;49.540;8.576;2023-03-17T15:11:26;18.40;32.70
16827;DHT22;8530;49.540;8.576;2023-03-17T15:14:02;18.40;33.10
16827;DHT22;8530;49.540;8.576;2023-03-17T15:16:33;18.40;33.10
16827;DHT22;8530;49.540;8.576;2023-03-17T15:19:04;18.30;33.20
16827;DHT22;8530;49.540;8.576;2023-03-17T15:21:33;18.30;33.40
16827;DHT22;8530;49.540;8.576;2023-03-17T15:24:16;18.20;33.50
16827;DHT22;8530;49.540;8.576;2023-03-17T15:26:46;18.20;33.60
16827;DHT22;8530;49.540;8.576;2023-03-17T15:29:12;18.20;33.60
16827;DHT22;8530;49.540;8.576;2023-03-17T15:31:39;18.10;33.60
16827;DHT22;8530;49.540;8.576;2023-03-17T15:34:08;18.10;33.70
16827;DHT22;8530;49.540;8.576;2023-03-17T15:36:34;18.10;33.80
16827;DHT22;8530;49.540;8.576;2023-03-17T15:39:01;18.10;33.90
16827;DHT22;8530;49.540;8.576;2023-03-17T15:41:29;18.10;34.00
16827;DHT22;8530;49.540;8.576;2023-03-17T15:43:57;18.00;33.90
16827;DHT22;8530;49.540;8.576;2023-03-17T15:46:25;18.00;34.00
16827;DHT22;8530;49.540;8.576;2023-03-17T15:48:55;17.90;34.10
16827;DHT22;8530;49.540;8.576;2023-03-17T15:51:21;17.90;34.20
16827;DHT22;8530;49.540;8.576;2023-03-17T15:53:48;17.90;34.30
16827;DHT22;8530;49.540;8.576;2023-03-17T15:56:17;17.90;34.40
16827;DHT22;8530;49.540;8.576;2023-03-17T15:58:45;17.90;34.60
16827;DHT22;8530;49.540;8.576;2023-03-17T16:01:14;17.90;34.70
16827;DHT22;8530;49.540;8.576;2023-03-17T16:03:44;17.90;34.80
16827;DHT22;8530;49.540;8.576;2023-03-17T16:06:15;17.90;34.80
16827;DHT22;8530;49.540;8.576;2023-03-17T16:08:42;17.80;34.80
16827;DHT22;8530;49.540;8.576;2023-03-17T16:11:14;17.80;34.90
16827;DHT22;8530;49.540;8.576;2023-03-17T16:13:42;17.80;35.10
16827;DHT22;8530;49.540;8.576;2023-03-17T16:16:17;17.80;35.20